sensor_id;sensor_type;location;lat;lon;timestamp;temperature;humidity
67557;DHT22;54387;53.526;49.300;2023-04-01T00:01:34;4.90;62.70
67557;DHT22;54387;53.526;49.300;2023-04-01T00:04:00;4.90;62.90
67557;DHT22;54387;53.526;49.300;2023-04-01T00:06:27;4.90;62.90
67557;DHT22;54387;53.526;49.300;2023-04-01T00:08:53;4.90;62.90
67557;DHT22;54387;53.526;49.300;2023-04-01T00:11:19;4.90;62.90
67557;DHT22;54387;53.526;49.300;2023-04-01T00:13:46;5.00;62.90
67557;DHT22;54387;53.526;49.300;2023-04-01T00:16:13;5.00;62.90
67557;DHT22;54387;53.526;49.300;2023-04-01T00:18:39;5.00;62.90
67557;DHT22;54387;53.526;49.300;2023-04-01T00:21:05;5.00;63.00
67557;DHT22;54387;53.526;49.300;2023-04-01T00:23:32;5.00;63.00
67557;DHT22;54387;53.526;49.300;2023-04-01T00:26:01;5.00;63.50
67557;DHT22;54387;53.526;49.300;2023-04-01T00:28:27;5.00;63.00
67557;DHT22;54387;53.526;49.300;2023-04-01T00:30:53;4.90;63.10
67557;DHT22;54387;53.526;49.300;2023-04-01T00:33:19;4.90;63.10
67557;DHT22;54387;53.526;49.300;2023-04-01T00:35:46;4.90;63.10
67557;DHT22;54387;53.526;49.300;2023-04-01T00:38:15;4.90;63.10
67557;DHT22;54387;53.526;49.300;2023-04-01T00:40:44;4.90;63.20
67557;DHT22;54387;53.526;49.300;2023-04-01T00:43:12;4.90;63.20
67557;DHT22;54387;53.526;49.300;2023-04-01T00:45:42;4.90;63.30
67557;DHT22;54387;53.526;49.300;2023-04-01T00:48:51;4.80;63.40
67557;DHT22;54387;53.526;49.300;2023-04-01T00:50:59;4.80;63.40
67557;DHT22;54387;53.526;49.300;2023-04-01T00:53:26;4.70;63.50
67557;DHT22;54387;53.526;49.300;2023-04-01T00:56:00;4.70;63.50
67557;DHT22;54387;53.526;49.300;2023-04-01T00:58:28;4.70;63.60
67557;DHT22;54387;53.526;49.300;2023-04-01T01:00:55;4.70;63.70
67557;DHT22;54387;53.526;49.300;2023-04-01T01:03:22;4.70;63.80
67557;DHT22;54387;53.526;49.300;2023-04-01T01:06:37;4.60;63.80
67557;DHT22;54387;53.526;49.300;2023-04-01T01:11:04;4.60;63.90
67557;DHT22;54387;53.526;49.300;2023-04-01T01:13:33;4.50;63.90
67557;DHT22;54387;53.526;49.300;2023-04-01T01:16:01;4.50;63.90
67557;DHT22;54387;53.526;49.300;2023-04-01T01:32:15;4.40;64.20
67557;DHT22;54387;53.526;49.300;2023-04-01T01:36:48;4.40;64.20
67557;DHT22;54387;53.526;49.300;2023-04-01T01:39:15;4.30;64.30
67557;DHT22;54387;53.526;49.300;2023-04-01T01:41:42;4.30;64.30
67557;DHT22;54387;53.526;49.300;2023-04-01T01:44:10;4.30;64.90
67557;DHT22;54387;53.526;49.300;2023-04-01T01:46:37;4.30;64.40
67557;DHT22;54387;53.526;49.300;2023-04-01T01:49:05;4.30;64.40
67557;DHT22;54387;53.526;49.300;2023-04-01T01:51:33;4.30;64.40
67557;DHT22;54387;53.526;49.300;2023-04-01T01:53:59;4.20;64.40
67557;DHT22;54387;53.526;49.300;2023-04-01T01:56:26;4.20;64.40
67557;DHT22;54387;53.526;49.300;2023-04-01T01:58:58;4.20;64.40
67557;DHT22;54387;53.526;49.300;2023-04-01T02:01:26;4.20;64.50
67557;DHT22;54387;53.526;49.300;2023-04-01T02:03:53;4.20;64.50
67557;DHT22;54387;53.526;49.300;2023-04-01T02:06:23;4.20;64.50
67557;DHT22;54387;53.526;49.300;2023-04-01T02:08:51;4.20;64.50
67557;DHT22;54387;53.526;49.300;2023-04-01T02:11:19;4.20;64.50
67557;DHT22;54387;53.526;49.300;2023-04-01T02:13:55;4.20;64.50
67557;DHT22;54387;53.526;49.300;2023-04-01T02:16:26;4.20;64.50
67557;DHT22;54387;53.526;49.300;2023-04-01T02:18:53;4.10;64.60
67557;DHT22;54387;53.526;49.300;2023-04-01T02:21:20;4.10;64.60
67557;DHT22;54387;53.526;49.300;2023-04-01T02:23:47;4.10;64.70
67557;DHT22;54387;53.526;49.300;2023-04-01T02:26:15;4.20;64.70
67557;DHT22;54387;53.526;49.300;2023-04-01T02:28:41;4.20;64.70
67557;DHT22;54387;53.526;49.300;2023-04-01T02:31:09;4.20;64.70
67557;DHT22;54387;53.526;49.300;2023-04-01T02:33:36;4.20;64.70
67557;DHT22;54387;53.526;49.300;2023-04-01T02:36:03;4.20;64.70
67557;DHT22;54387;53.526;49.300;2023-04-01T02:38:30;4.20;64.70
67557;DHT22;54387;53.526;49.300;2023-04-01T02:40:57;4.20;64.70
67557;DHT22;54387;53.526;49.300;2023-04-01T02:43:24;4.20;64.70
67557;DHT22;54387;53.526;49.300;2023-04-01T02:45:51;4.20;64.70
67557;DHT22;54387;53.526;49.300;2023-04-01T02:48:17;4.20;64.70
67557;DHT22;54387;53.526;49.300;2023-04-01T02:50:43;4.20;64.70
67557;DHT22;54387;53.526;49.300;2023-04-01T02:53:10;4.20;64.70
67557;DHT22;54387;53.526;49.300;2023-04-01T02:55:37;4.20;64.70
67557;DHT22;54387;53.526;49.300;2023-04-01T02:58:03;4.30;64.70
67557;DHT22;54387;53.526;49.300;2023-04-01T03:00:29;4.30;64.70
67557;DHT22;54387;53.526;49.300;2023-04-01T03:02:56;4.30;64.70
67557;DHT22;54387;53.526;49.300;2023-04-01T03:05:23;4.30;64.70
67557;DHT22;54387;53.526;49.300;2023-04-01T03:07:49;4.30;64.70
67557;DHT22;54387;53.526;49.300;2023-04-01T03:10:16;4.30;64.70
67557;DHT22;54387;53.526;49.300;2023-04-01T03:12:42;4.30;64.70
67557;DHT22;54387;53.526;49.300;2023-04-01T03:15:09;4.30;64.80
67557;DHT22;54387;53.526;49.300;2023-04-01T03:17:36;4.30;64.70
67557;DHT22;54387;53.526;49.300;2023-04-01T03:20:02;4.30;64.70
67557;DHT22;54387;53.526;49.300;2023-04-01T03:22:30;4.30;64.70
67557;DHT22;54387;53.526;49.300;2023-04-01T03:24:57;4.30;64.60
67557;DHT22;54387;53.526;49.300;2023-04-01T03:27:23;4.30;64.50
67557;DHT22;54387;53.526;49.300;2023-04-01T03:29:49;4.30;64.50
67557;DHT22;54387;53.526;49.300;2023-04-01T03:32:15;4.30;64.40
67557;DHT22;54387;53.526;49.300;2023-04-01T03:34:41;4.30;64.40
67557;DHT22;54387;53.526;49.300;2023-04-01T03:37:08;4.30;64.40
67557;DHT22;54387;53.526;49.300;2023-04-01T03:39:34;4.30;64.20
67557;DHT22;54387;53.526;49.300;2023-04-01T03:42:01;4.30;64.10
67557;DHT22;54387;53.526;49.300;2023-04-01T03:44:30;4.30;64.00
67557;DHT22;54387;53.526;49.300;2023-04-01T03:46:57;4.30;63.90
67557;DHT22;54387;53.526;49.300;2023-04-01T03:49:23;4.30;63.80
67557;DHT22;54387;53.526;49.300;2023-04-01T03:51:50;4.30;63.60
67557;DHT22;54387;53.526;49.300;2023-04-01T03:54:17;4.30;63.60
67557;DHT22;54387;53.526;49.300;2023-04-01T03:56:43;4.30;63.50
67557;DHT22;54387;53.526;49.300;2023-04-01T03:59:10;4.30;63.60
67557;DHT22;54387;53.526;49.300;2023-04-01T04:01:37;4.30;63.40
67557;DHT22;54387;53.526;49.300;2023-04-01T04:04:03;4.30;63.40
67557;DHT22;54387;53.526;49.300;2023-04-01T04:06:30;4.30;63.20
67557;DHT22;54387;53.526;49.300;2023-04-01T04:08:56;4.40;63.20
67557;DHT22;54387;53.526;49.300;2023-04-01T04:11:22;4.40;63.10
67557;DHT22;54387;53.526;49.300;2023-04-01T04:13:49;4.50;62.90
67557;DHT22;54387;53.526;49.300;2023-04-01T04:16:16;4.60;62.70
67557;DHT22;54387;53.526;49.300;2023-04-01T04:18:42;4.60;62.70
67557;DHT22;54387;53.526;49.300;2023-04-01T04:21:11;4.60;62.60
67557;DHT22;54387;53.526;49.300;2023-04-01T04:23:38;4.70;62.40
67557;DHT22;54387;53.526;49.300;2023-04-01T04:26:05;4.70;62.30
67557;DHT22;54387;53.526;49.300;2023-04-01T04:28:31;4.80;62.00
67557;DHT22;54387;53.526;49.300;2023-04-01T04:30:58;4.80;61.60
67557;DHT22;54387;53.526;49.300;2023-04-01T04:33:25;4.90;61.50
67557;DHT22;54387;53.526;49.300;2023-04-01T04:35:51;4.90;61.50
67557;DHT22;54387;53.526;49.300;2023-04-01T04:38:17;5.00;61.40
67557;DHT22;54387;53.526;49.300;2023-04-01T04:40:44;5.00;61.00
67557;DHT22;54387;53.526;49.300;2023-04-01T04:43:11;5.10;60.80
67557;DHT22;54387;53.526;49.300;2023-04-01T04:45:37;5.10;60.60
67557;DHT22;54387;53.526;49.300;2023-04-01T04:48:03;5.20;60.40
67557;DHT22;54387;53.526;49.300;2023-04-01T04:50:30;5.20;60.30
67557;DHT22;54387;53.526;49.300;2023-04-01T04:52:56;5.30;59.60
67557;DHT22;54387;53.526;49.300;2023-04-01T04:55:22;5.30;58.50
67557;DHT22;54387;53.526;49.300;2023-04-01T04:57:48;5.40;58.40
67557;DHT22;54387;53.526;49.300;2023-04-01T05:00:14;5.40;58.20
67557;DHT22;54387;53.526;49.300;2023-04-01T05:02:40;5.50;57.10
67557;DHT22;54387;53.526;49.300;2023-04-01T05:05:06;5.50;56.60
67557;DHT22;54387;53.526;49.300;2023-04-01T05:07:32;5.50;56.20
67557;DHT22;54387;53.526;49.300;2023-04-01T05:09:58;5.60;56.20
67557;DHT22;54387;53.526;49.300;2023-04-01T05:12:24;5.60;55.60
67557;DHT22;54387;53.526;49.300;2023-04-01T05:14:50;5.70;55.40
67557;DHT22;54387;53.526;49.300;2023-04-01T05:17:16;5.70;54.60
67557;DHT22;54387;53.526;49.300;2023-04-01T05:19:42;5.70;54.20
67557;DHT22;54387;53.526;49.300;2023-04-01T05:22:08;5.60;54.40
67557;DHT22;54387;53.526;49.300;2023-04-01T05:24:34;5.60;54.80
67557;DHT22;54387;53.526;49.300;2023-04-01T05:27:00;5.60;55.00
67557;DHT22;54387;53.526;49.300;2023-04-01T05:29:26;5.60;55.00
67557;DHT22;54387;53.526;49.300;2023-04-01T05:31:52;5.60;55.30
67557;DHT22;54387;53.526;49.300;2023-04-01T05:34:19;5.70;55.40
67557;DHT22;54387;53.526;49.300;2023-04-01T05:36:45;5.70;55.60
67557;DHT22;54387;53.526;49.300;2023-04-01T05:39:11;5.80;55.40
67557;DHT22;54387;53.526;49.300;2023-04-01T05:41:37;5.80;56.20
67557;DHT22;54387;53.526;49.300;2023-04-01T05:44:03;5.90;55.50
67557;DHT22;54387;53.526;49.300;2023-04-01T05:46:30;5.90;55.30
67557;DHT22;54387;53.526;49.300;2023-04-01T05:48:56;6.00;55.30
67557;DHT22;54387;53.526;49.300;2023-04-01T05:51:23;6.00;55.00
67557;DHT22;54387;53.526;49.300;2023-04-01T05:53:49;6.10;55.10
67557;DHT22;54387;53.526;49.300;2023-04-01T05:56:15;6.20;54.90
67557;DHT22;54387;53.526;49.300;2023-04-01T05:58:41;6.20;54.80
67557;DHT22;54387;53.526;49.300;2023-04-01T06:01:08;6.30;54.60
67557;DHT22;54387;53.526;49.300;2023-04-01T06:03:35;6.40;54.80
67557;DHT22;54387;53.526;49.300;2023-04-01T06:06:01;6.50;54.50
67557;DHT22;54387;53.526;49.300;2023-04-01T06:08:27;6.50;53.40
67557;DHT22;54387;53.526;49.300;2023-04-01T06:11:04;6.60;52.80
67557;DHT22;54387;53.526;49.300;2023-04-01T06:16:12;6.70;52.30
67557;DHT22;54387;53.526;49.300;2023-04-01T06:23:56;6.90;51.00
67557;DHT22;54387;53.526;49.300;2023-04-01T06:31:26;7.10;50.30
67557;DHT22;54387;53.526;49.300;2023-04-01T06:36:45;7.10;49.50
67557;DHT22;54387;53.526;49.300;2023-04-01T06:40:01;7.10;49.50
67557;DHT22;54387;53.526;49.300;2023-04-01T06:55:26;7.60;49.00
67557;DHT22;54387;53.526;49.300;2023-04-01T06:57:54;7.80;49.10
67557;DHT22;54387;53.526;49.300;2023-04-01T07:00:29;7.90;48.90
67557;DHT22;54387;53.526;49.300;2023-04-01T07:03:04;8.00;48.60
67557;DHT22;54387;53.526;49.300;2023-04-01T07:05:32;8.10;48.40
67557;DHT22;54387;53.526;49.300;2023-04-01T07:07:59;8.20;47.60
67557;DHT22;54387;53.526;49.300;2023-04-01T07:10:41;8.30;48.00
67557;DHT22;54387;53.526;49.300;2023-04-01T07:13:13;8.30;47.30
67557;DHT22;54387;53.526;49.300;2023-04-01T07:15:41;8.40;47.40
67557;DHT22;54387;53.526;49.300;2023-04-01T07:18:18;8.40;47.00
67557;DHT22;54387;53.526;49.300;2023-04-01T07:20:44;8.50;47.00
67557;DHT22;54387;53.526;49.300;2023-04-01T07:23:24;8.60;46.40
67557;DHT22;54387;53.526;49.300;2023-04-01T07:25:55;8.60;46.50
67557;DHT22;54387;53.526;49.300;2023-04-01T07:28:22;8.70;46.30
67557;DHT22;54387;53.526;49.300;2023-04-01T07:39:38;8.80;46.00
67557;DHT22;54387;53.526;49.300;2023-04-01T07:44:24;8.90;44.70
67557;DHT22;54387;53.526;49.300;2023-04-01T07:52:21;9.00;45.30
67557;DHT22;54387;53.526;49.300;2023-04-01T07:54:50;9.10;43.90
67557;DHT22;54387;53.526;49.300;2023-04-01T07:59:56;9.20;43.50
67557;DHT22;54387;53.526;49.300;2023-04-01T08:02:38;9.20;43.30
67557;DHT22;54387;53.526;49.300;2023-04-01T08:07:59;9.20;43.30
67557;DHT22;54387;53.526;49.300;2023-04-01T08:16:03;9.50;43.10
67557;DHT22;54387;53.526;49.300;2023-04-01T08:21:14;9.50;42.90
67557;DHT22;54387;53.526;49.300;2023-04-01T08:23:43;9.60;43.00
67557;DHT22;54387;53.526;49.300;2023-04-01T08:28:57;9.60;42.90
67557;DHT22;54387;53.526;49.300;2023-04-01T08:31:34;9.80;42.60
67557;DHT22;54387;53.526;49.300;2023-04-01T08:34:02;9.80;42.30
67557;DHT22;54387;53.526;49.300;2023-04-01T08:39:02;9.90;42.10
67557;DHT22;54387;53.526;49.300;2023-04-01T08:44:15;10.00;41.70
67557;DHT22;54387;53.526;49.300;2023-04-01T08:50:04;10.10;41.10
67557;DHT22;54387;53.526;49.300;2023-04-01T08:52:10;10.20;40.70
67557;DHT22;54387;53.526;49.300;2023-04-01T08:54:46;10.20;40.50
67557;DHT22;54387;53.526;49.300;2023-04-01T09:00:00;10.30;40.30
67557;DHT22;54387;53.526;49.300;2023-04-01T09:13:04;10.70;41.30
67557;DHT22;54387;53.526;49.300;2023-04-01T09:15:37;10.90;40.00
67557;DHT22;54387;53.526;49.300;2023-04-01T09:25:59;11.30;39.10
67557;DHT22;54387;53.526;49.300;2023-04-01T09:28:38;11.60;39.00
67557;DHT22;54387;53.526;49.300;2023-04-01T09:31:23;12.00;39.30
67557;DHT22;54387;53.526;49.300;2023-04-01T09:36:44;13.80;36.60
67557;DHT22;54387;53.526;49.300;2023-04-01T09:39:26;15.10;35.50
67557;DHT22;54387;53.526;49.300;2023-04-01T09:44:25;17.70;30.30
67557;DHT22;54387;53.526;49.300;2023-04-01T10:03:10;23.20;24.50
67557;DHT22;54387;53.526;49.300;2023-04-01T10:11:42;25.90;22.40
67557;DHT22;54387;53.526;49.300;2023-04-01T10:19:02;25.20;21.70
67557;DHT22;54387;53.526;49.300;2023-04-01T10:27:02;25.10;21.20
67557;DHT22;54387;53.526;49.300;2023-04-01T10:36:59;25.20;20.70
67557;DHT22;54387;53.526;49.300;2023-04-01T10:39:34;25.00;20.90
67557;DHT22;54387;53.526;49.300;2023-04-01T10:42:13;25.00;20.90
67557;DHT22;54387;53.526;49.300;2023-04-01T11:11:16;27.50;19.90
67557;DHT22;54387;53.526;49.300;2023-04-01T11:32:34;22.50;21.50
67557;DHT22;54387;53.526;49.300;2023-04-01T11:45:36;19.90;23.50
67557;DHT22;54387;53.526;49.300;2023-04-01T12:01:45;17.60;25.60
67557;DHT22;54387;53.526;49.300;2023-04-01T12:22:21;16.50;27.30
67557;DHT22;54387;53.526;49.300;2023-04-01T12:25:02;16.20;27.70
67557;DHT22;54387;53.526;49.300;2023-04-01T12:27:45;15.90;28.10
67557;DHT22;54387;53.526;49.300;2023-04-01T12:30:30;15.70;28.70
67557;DHT22;54387;53.526;49.300;2023-04-01T12:35:31;15.30;29.20
67557;DHT22;54387;53.526;49.300;2023-04-01T12:53:45;14.40;30.80
67557;DHT22;54387;53.526;49.300;2023-04-01T12:56:40;14.30;31.10
67557;DHT22;54387;53.526;49.300;2023-04-01T13:06:55;13.70;32.40
67557;DHT22;54387;53.526;49.300;2023-04-01T13:17:14;13.20;33.40
67557;DHT22;54387;53.526;49.300;2023-04-01T13:28:01;13.00;33.80
67557;DHT22;54387;53.526;49.300;2023-04-01T13:30:32;12.90;34.00
67557;DHT22;54387;53.526;49.300;2023-04-01T13:35:55;12.70;34.50
67557;DHT22;54387;53.526;49.300;2023-04-01T13:43:45;12.40;35.20
67557;DHT22;54387;53.526;49.300;2023-04-01T13:46:22;12.30;35.60
67557;DHT22;54387;53.526;49.300;2023-04-01T13:51:22;12.10;35.90
67557;DHT22;54387;53.526;49.300;2023-04-01T14:06:30;12.00;36.10
67557;DHT22;54387;53.526;49.300;2023-04-01T14:09:24;11.90;36.00
67557;DHT22;54387;53.526;49.300;2023-04-01T14:11:45;11.80;36.10
67557;DHT22;54387;53.526;49.300;2023-04-01T14:22:13;11.50;36.40
67557;DHT22;54387;53.526;49.300;2023-04-01T14:24:42;11.50;36.60
67557;DHT22;54387;53.526;49.300;2023-04-01T14:45:49;10.80;37.60
67557;DHT22;54387;53.526;49.300;2023-04-01T14:48:21;10.70;37.60
67557;DHT22;54387;53.526;49.300;2023-04-01T14:50:50;10.70;37.80
67557;DHT22;54387;53.526;49.300;2023-04-01T14:53:28;10.60;37.80
67557;DHT22;54387;53.526;49.300;2023-04-01T14:55:59;10.60;38.00
67557;DHT22;54387;53.526;49.300;2023-04-01T14:58:40;10.50;38.10
67557;DHT22;54387;53.526;49.300;2023-04-01T15:03:40;10.40;38.40
67557;DHT22;54387;53.526;49.300;2023-04-01T15:14:04;10.20;38.50
67557;DHT22;54387;53.526;49.300;2023-04-01T15:16:45;10.20;38.60
67557;DHT22;54387;53.526;49.300;2023-04-01T15:21:54;10.10;40.00
67557;DHT22;54387;53.526;49.300;2023-04-01T15:24:26;10.10;39.00
67557;DHT22;54387;53.526;49.300;2023-04-01T15:39:51;9.80;40.00
67557;DHT22;54387;53.526;49.300;2023-04-01T15:44:55;9.60;40.60
67557;DHT22;54387;53.526;49.300;2023-04-01T15:57:28;9.50;40.60
67557;DHT22;54387;53.526;49.300;2023-04-01T16:11:05;9.30;41.00
67557;DHT22;54387;53.526;49.300;2023-04-01T16:13:42;9.30;41.00
67557;DHT22;54387;53.526;49.300;2023-04-01T16:26:19;9.10;41.20
67557;DHT22;54387;53.526;49.300;2023-04-01T16:28:51;9.10;41.20
67557;DHT22;54387;53.526;49.300;2023-04-01T16:36:33;9.00;41.60
67557;DHT22;54387;53.526;49.300;2023-04-01T16:44:26;9.00;41.80
67557;DHT22;54387;53.526;49.300;2023-04-01T16:46:56;9.00;41.80
67557;DHT22;54387;53.526;49.300;2023-04-01T16:49:30;8.90;41.80
67557;DHT22;54387;53.526;49.300;2023-04-01T16:52:13;8.90;41.90
67557;DHT22;54387;53.526;49.300;2023-04-01T16:54:53;8.90;42.00
67557;DHT22;54387;53.526;49.300;2023-04-01T17:00:24;8.90;42.10
67557;DHT22;54387;53.526;49.300;2023-04-01T17:03:04;8.90;42.00
67557;DHT22;54387;53.526;49.300;2023-04-01T17:08:29;8.90;42.20
67557;DHT22;54387;53.526;49.300;2023-04-01T17:13:34;8.90;42.30
67557;DHT22;54387;53.526;49.300;2023-04-01T17:24:24;8.90;42.60
67557;DHT22;54387;53.526;49.300;2023-04-01T17:26:50;8.90;42.60
67557;DHT22;54387;53.526;49.300;2023-04-01T17:29:23;8.90;42.60
67557;DHT22;54387;53.526;49.300;2023-04-01T17:32:54;8.90;42.50
67557;DHT22;54387;53.526;49.300;2023-04-01T17:37:54;8.90;42.70
67557;DHT22;54387;53.526;49.300;2023-04-01T17:50:44;8.90;43.40
67557;DHT22;54387;53.526;49.300;2023-04-01T17:53:23;9.00;43.50
67557;DHT22;54387;53.526;49.300;2023-04-01T18:03:55;8.90;44.10
67557;DHT22;54387;53.526;49.300;2023-04-01T18:08:56;8.90;45.20
67557;DHT22;54387;53.526;49.300;2023-04-01T18:11:44;8.80;44.10
67557;DHT22;54387;53.526;49.300;2023-04-01T18:19:16;8.80;44.90
67557;DHT22;54387;53.526;49.300;2023-04-01T18:21:45;8.80;45.10
67557;DHT22;54387;53.526;49.300;2023-04-01T18:24:17;8.80;45.30
67557;DHT22;54387;53.526;49.300;2023-04-01T18:26:46;8.90;45.40
67557;DHT22;54387;53.526;49.300;2023-04-01T18:31:54;8.90;45.30
67557;DHT22;54387;53.526;49.300;2023-04-01T18:37:00;8.90;45.90
67557;DHT22;54387;53.526;49.300;2023-04-01T18:39:40;8.90;45.90
67557;DHT22;54387;53.526;49.300;2023-04-01T18:42:19;8.90;45.80
67557;DHT22;54387;53.526;49.300;2023-04-01T18:45:01;8.90;45.80
67557;DHT22;54387;53.526;49.300;2023-04-01T18:55:47;8.80;45.70
67557;DHT22;54387;53.526;49.300;2023-04-01T19:01:05;8.80;45.60
67557;DHT22;54387;53.526;49.300;2023-04-01T19:17:28;8.70;45.90
67557;DHT22;54387;53.526;49.300;2023-04-01T19:45:54;8.50;46.70
67557;DHT22;54387;53.526;49.300;2023-04-01T19:53:40;8.50;46.90
67557;DHT22;54387;53.526;49.300;2023-04-01T19:56:15;8.50;46.90
67557;DHT22;54387;53.526;49.300;2023-04-01T19:58:48;8.50;47.00
67557;DHT22;54387;53.526;49.300;2023-04-01T20:01:23;8.50;47.00
67557;DHT22;54387;53.526;49.300;2023-04-01T20:06:22;8.50;47.20
67557;DHT22;54387;53.526;49.300;2023-04-01T20:20:13;8.40;47.50
67557;DHT22;54387;53.526;49.300;2023-04-01T20:22:22;8.40;47.40
67557;DHT22;54387;53.526;49.300;2023-04-01T20:24:51;8.40;47.60
67557;DHT22;54387;53.526;49.300;2023-04-01T20:27:20;8.40;47.80
67557;DHT22;54387;53.526;49.300;2023-04-01T20:34:58;8.30;47.70
67557;DHT22;54387;53.526;49.300;2023-04-01T20:42:50;8.20;47.80
67557;DHT22;54387;53.526;49.300;2023-04-01T20:45:30;8.20;48.00
67557;DHT22;54387;53.526;49.300;2023-04-01T20:58:38;8.20;47.90
67557;DHT22;54387;53.526;49.300;2023-04-01T21:16:23;8.00;48.10
67557;DHT22;54387;53.526;49.300;2023-04-01T21:31:53;8.20;47.90
67557;DHT22;54387;53.526;49.300;2023-04-01T21:44:52;8.20;47.40
67557;DHT22;54387;53.526;49.300;2023-04-01T22:00:24;8.20;46.90
67557;DHT22;54387;53.526;49.300;2023-04-01T22:05:34;8.30;46.70
67557;DHT22;54387;53.526;49.300;2023-04-01T22:08:17;8.30;46.70
67557;DHT22;54387;53.526;49.300;2023-04-01T22:10:50;8.30;47.00
67557;DHT22;54387;53.526;49.300;2023-04-01T22:13:23;8.30;46.50
67557;DHT22;54387;53.526;49.300;2023-04-01T22:15:54;8.30;46.40
67557;DHT22;54387;53.526;49.300;2023-04-01T22:20:53;8.30;46.40
67557;DHT22;54387;53.526;49.300;2023-04-01T22:23:27;8.30;46.30
67557;DHT22;54387;53.526;49.300;2023-04-01T22:28:40;8.30;46.30
67557;DHT22;54387;53.526;49.300;2023-04-01T22:31:09;8.30;46.30
67557;DHT22;54387;53.526;49.300;2023-04-01T22:33:59;8.30;46.30
67557;DHT22;54387;53.526;49.300;2023-04-01T22:39:28;8.30;46.10
67557;DHT22;54387;53.526;49.300;2023-04-01T22:59:45;8.40;45.90
67557;DHT22;54387;53.526;49.300;2023-04-01T23:02:16;8.40;46.00
67557;DHT22;54387;53.526;49.300;2023-04-01T23:04:45;8.40;45.90
67557;DHT22;54387;53.526;49.300;2023-04-01T23:07:37;8.40;45.90
67557;DHT22;54387;53.526;49.300;2023-04-01T23:10:03;8.40;45.90
67557;DHT22;54387;53.526;49.300;2023-04-01T23:12:31;8.40;46.00
67557;DHT22;54387;53.526;49.300;2023-04-01T23:15:02;8.40;45.90
67557;DHT22;54387;53.526;49.300;2023-04-01T23:24:53;8.50;45.90
67557;DHT22;54387;53.526;49.300;2023-04-01T23:27:23;8.40;45.70
67557;DHT22;54387;53.526;49.300;2023-04-01T23:29:51;8.40;45.70
67557;DHT22;54387;53.526;49.300;2023-04-01T23:32:18;8.40;45.70
67557;DHT22;54387;53.526;49.300;2023-04-01T23:34:46;8.40;45.70
67557;DHT22;54387;53.526;49.300;2023-04-01T23:37:13;8.40;45.70
67557;DHT22;54387;53.526;49.300;2023-04-01T23:39:43;8.40;45.70
67557;DHT22;54387;53.526;49.300;2023-04-01T23:44:41;8.40;45.60
67557;DHT22;54387;53.526;49.300;2023-04-01T23:47:12;8.40;45.70
67557;DHT22;54387;53.526;49.300;2023-04-01T23:49:40;8.40;45.70
67557;DHT22;54387;53.526;49.300;2023-04-01T23:52:14;8.40;45.80
67557;DHT22;54387;53.526;49.300;2023-04-01T23:57:11;8.40;45.80
67557;DHT22;54387;53.526;49.300;2023-04-01T23:59:38;8.40;45.80
